createdAt,value
2023-05-08T00:02:14.229Z,71.65
2023-05-08T00:04:40.925Z,71.36
2023-05-08T00:07:07.623Z,71.47
2023-05-08T00:09:34.252Z,72.19
2023-05-08T00:12:00.911Z,71.37
2023-05-08T00:14:27.539Z,72.04
2023-05-08T00:16:54.218Z,71.62
2023-05-08T00:19:20.895Z,71.51
2023-05-08T00:21:47.545Z,71.79
2023-05-08T00:24:14.759Z,71.13
2023-05-08T00:26:42.050Z,71.02
2023-05-08T00:29:08.710Z,71.24
2023-05-08T00:31:35.378Z,71.95
2023-05-08T00:34:02.018Z,71.92
2023-05-08T00:36:28.764Z,71.37
2023-05-08T00:38:55.526Z,71.12
2023-05-08T00:41:22.188Z,71.30
2023-05-08T00:43:49.072Z,71.28
2023-05-08T00:46:15.908Z,71.25
2023-05-08T00:48:42.511Z,71.82
2023-05-08T00:51:11.167Z,71.11
2023-05-08T00:53:39.834Z,71.83
2023-05-08T00:56:06.698Z,72.20
2023-05-08T00:58:33.679Z,71.63
2023-05-08T01:01:00.621Z,72.02
2023-05-08T01:03:27.505Z,72.13
2023-05-08T01:05:54.617Z,72.52
2023-05-08T01:08:21.267Z,72.40
2023-05-08T01:11:03.489Z,72.81
2023-05-08T01:13:54.162Z,72.48
2023-05-08T01:16:30.578Z,72.67
2023-05-08T01:19:04.267Z,72.83
2023-05-08T01:21:43.220Z,72.67
2023-05-08T01:24:16.013Z,72.49
2023-05-08T01:27:06.787Z,72.62
2023-05-08T01:30:01.306Z,73.26
2023-05-08T01:32:35.519Z,72.85
2023-05-08T01:35:45.103Z,73.45
2023-05-08T01:38:31.530Z,73.10
2023-05-08T01:41:28.386Z,73.25
2023-05-08T01:44:06.586Z,73.81
2023-05-08T01:46:33.923Z,73.63
2023-05-08T01:49:07.179Z,73.24
2023-05-08T01:51:40.871Z,73.56
2023-05-08T01:54:10.348Z,73.87
2023-05-08T01:56:38.102Z,74.00
2023-05-08T01:59:04.735Z,74.11
2023-05-08T02:01:32.104Z,73.73
2023-05-08T02:03:58.853Z,73.90
2023-05-08T02:06:25.684Z,74.16
2023-05-08T02:08:52.338Z,73.96
2023-05-08T02:11:19.379Z,73.83
2023-05-08T02:13:47.280Z,73.50
2023-05-08T02:16:13.923Z,73.42
2023-05-08T02:18:43.265Z,73.86
2023-05-08T02:21:09.982Z,73.21
2023-05-08T02:23:36.611Z,73.34
2023-05-08T02:26:04.014Z,73.48
2023-05-08T02:28:30.815Z,73.70
2023-05-08T02:30:58.297Z,73.89
2023-05-08T02:33:25.065Z,73.24
2023-05-08T02:35:52.026Z,73.85
2023-05-08T02:38:20.779Z,73.96
2023-05-08T02:40:53.285Z,73.28
2023-05-08T02:43:19.875Z,73.12
2023-05-08T02:45:49.854Z,73.42
2023-05-08T02:48:20.891Z,73.24
2023-05-08T02:51:06.356Z,73.35
2023-05-08T02:53:39.930Z,73.59
2023-05-08T02:56:11.302Z,73.17
2023-05-08T02:58:43.535Z,73.42
2023-05-08T03:01:27.580Z,73.54
2023-05-08T03:04:06.269Z,73.31
2023-05-08T03:06:37.055Z,73.67
2023-05-08T03:09:04.223Z,73.51
2023-05-08T03:11:42.428Z,73.50
2023-05-08T03:14:13.472Z,74.21
2023-05-08T03:16:41.518Z,74.22
2023-05-08T03:19:24.174Z,74.15
2023-05-08T03:21:51.902Z,74.05
2023-05-08T03:24:18.543Z,74.17
2023-05-08T03:26:45.165Z,74.32
2023-05-08T03:29:13.512Z,74.36
2023-05-08T03:31:40.598Z,74.27
2023-05-08T03:34:07.410Z,73.83
2023-05-08T03:36:34.093Z,74.48
2023-05-08T03:39:00.675Z,74.70
2023-05-08T03:41:27.319Z,74.46
2023-05-08T03:43:54.660Z,75.01
2023-05-08T03:46:21.316Z,74.88
2023-05-08T03:48:48.037Z,74.35
2023-05-08T03:51:15.298Z,74.68
2023-05-08T03:53:41.950Z,74.90
2023-05-08T03:56:08.581Z,74.70
2023-05-08T03:58:38.043Z,74.85
2023-05-08T04:01:16.680Z,74.85
2023-05-08T04:03:57.987Z,74.82
2023-05-08T04:06:48.462Z,74.46
2023-05-08T04:09:34.373Z,74.11
2023-05-08T04:12:02.558Z,73.80
2023-05-08T04:14:32.408Z,74.04
2023-05-08T04:17:02.764Z,74.02
2023-05-08T04:19:30.331Z,74.02
2023-05-08T04:21:59.384Z,73.29
2023-05-08T04:24:26.647Z,72.70
2023-05-08T04:26:53.282Z,72.83
2023-05-08T04:29:19.879Z,71.48
2023-05-08T04:31:47.149Z,70.84
2023-05-08T04:34:14.065Z,70.78
2023-05-08T04:36:40.720Z,70.01
2023-05-08T04:39:07.387Z,68.00
2023-05-08T04:41:35.608Z,67.34
2023-05-08T04:44:03.570Z,66.98
2023-05-08T04:46:30.252Z,65.62
2023-05-08T04:48:57.070Z,65.72
2023-05-08T04:51:23.662Z,65.93
2023-05-08T04:53:50.913Z,66.07
2023-05-08T04:56:19.335Z,65.34
2023-05-08T04:58:45.961Z,64.79
2023-05-08T05:01:12.780Z,64.71
2023-05-08T05:03:39.423Z,64.70
2023-05-08T05:06:06.920Z,64.80
2023-05-08T05:08:33.690Z,64.79
2023-05-08T05:11:00.369Z,64.22
2023-05-08T05:13:27.161Z,64.56
2023-05-08T05:15:54.606Z,64.40
2023-05-08T05:18:21.355Z,64.43
2023-05-08T05:20:47.963Z,62.84
2023-05-08T05:23:14.689Z,62.37
2023-05-08T05:25:41.389Z,59.83
2023-05-08T05:28:08.065Z,58.06
2023-05-08T05:30:34.758Z,53.05
2023-05-08T05:33:01.400Z,51.53
2023-05-08T05:35:28.076Z,50.41
2023-05-08T05:37:55.945Z,47.37
2023-05-08T05:40:24.237Z,45.17
2023-05-08T05:42:51.154Z,42.51
2023-05-08T05:45:17.964Z,39.07
2023-05-08T05:47:46.448Z,37.11
2023-05-08T05:50:18.892Z,36.48
2023-05-08T05:52:46.325Z,37.91
2023-05-08T05:55:13.516Z,39.35
2023-05-08T05:57:40.781Z,40.33
2023-05-08T06:00:08.452Z,42.23
2023-05-08T06:02:36.896Z,43.00
2023-05-08T06:05:04.060Z,44.15
2023-05-08T06:07:30.816Z,44.66
2023-05-08T06:09:57.652Z,46.75
2023-05-08T06:12:31.571Z,48.03
2023-05-08T06:14:58.372Z,48.39
2023-05-08T06:17:24.997Z,49.70
2023-05-08T06:19:54.236Z,49.91
2023-05-08T06:22:24.387Z,50.83
2023-05-08T06:24:54.532Z,51.98
2023-05-08T06:27:21.423Z,49.86
2023-05-08T06:29:50.916Z,49.27
2023-05-08T06:32:18.259Z,46.87
2023-05-08T06:34:45.318Z,42.50
2023-05-08T06:37:12.017Z,39.05
2023-05-08T06:39:38.648Z,37.50
2023-05-08T06:42:08.476Z,33.94
2023-05-08T06:44:36.041Z,32.38
2023-05-08T06:47:02.793Z,27.90
2023-05-08T06:49:29.508Z,27.44
2023-05-08T06:51:57.931Z,26.44
2023-05-08T06:54:24.923Z,23.69
2023-05-08T06:56:53.174Z,22.09
2023-05-08T06:59:20.647Z,22.52
2023-05-08T07:01:47.429Z,21.67
2023-05-08T07:04:14.135Z,22.07
2023-05-08T07:06:40.783Z,22.30
2023-05-08T07:09:07.509Z,21.67
2023-05-08T07:11:34.277Z,21.60
2023-05-08T07:14:01.017Z,21.37
2023-05-08T07:19:19.534Z,24.58
2023-05-08T07:21:47.919Z,26.20
2023-05-08T07:24:14.544Z,27.85
2023-05-08T07:26:41.143Z,30.35
2023-05-08T07:29:08.282Z,31.96
2023-05-08T07:31:35.179Z,33.41
2023-05-08T07:34:02.474Z,33.60
2023-05-08T07:36:29.134Z,34.42
2023-05-08T07:38:55.777Z,36.78
2023-05-08T07:41:22.740Z,38.33
2023-05-08T07:43:50.069Z,40.50
2023-05-08T07:46:17.794Z,41.39
2023-05-08T07:48:44.694Z,42.00
2023-05-08T07:51:11.586Z,44.75
2023-05-08T07:53:40.942Z,44.02
2023-05-08T07:56:07.833Z,44.21
2023-05-08T07:58:34.492Z,44.88
2023-05-08T08:01:01.996Z,45.34
2023-05-08T08:03:28.914Z,46.65
2023-05-08T08:05:55.760Z,46.60
2023-05-08T08:08:22.455Z,48.00
2023-05-08T08:10:50.188Z,47.23
2023-05-08T08:13:17.747Z,47.63
2023-05-08T08:15:44.507Z,47.86
2023-05-08T08:18:11.286Z,47.82
2023-05-08T08:20:38.072Z,48.94
2023-05-08T08:23:04.711Z,48.47
2023-05-08T08:25:31.566Z,48.01
2023-05-08T08:27:58.618Z,48.30
2023-05-08T08:30:25.451Z,47.54
2023-05-08T08:32:52.128Z,48.63
2023-05-08T08:35:18.933Z,48.33
2023-05-08T08:37:45.703Z,48.88
2023-05-08T08:40:12.604Z,49.45
2023-05-08T08:42:39.303Z,49.02
2023-05-08T08:45:07.030Z,49.02
2023-05-08T08:47:41.489Z,49.85
2023-05-08T08:50:09.238Z,50.25
2023-05-08T08:52:43.114Z,49.49
2023-05-08T08:55:11.835Z,48.69
2023-05-08T08:57:40.144Z,49.53
2023-05-08T09:00:09.771Z,50.28
2023-05-08T09:02:36.611Z,49.34
2023-05-08T09:05:03.628Z,49.55
2023-05-08T09:07:30.576Z,49.55
2023-05-08T09:09:57.588Z,48.96
2023-05-08T09:12:24.160Z,49.84
2023-05-08T09:14:51.089Z,49.83
2023-05-08T09:17:17.782Z,51.39
2023-05-08T09:19:44.471Z,49.61
2023-05-08T09:22:11.121Z,49.23
2023-05-08T09:24:57.660Z,49.98
2023-05-08T09:27:28.197Z,50.37
2023-05-08T09:30:11.181Z,50.84
2023-05-08T09:32:39.417Z,51.18
2023-05-08T09:35:06.888Z,51.29
2023-05-08T09:37:34.120Z,51.78
2023-05-08T09:40:20.980Z,51.35
2023-05-08T09:42:51.305Z,50.56
2023-05-08T09:45:28.776Z,51.24
2023-05-08T09:47:55.641Z,52.71
2023-05-08T09:50:22.645Z,52.07
2023-05-08T09:52:49.434Z,50.70
2023-05-08T09:55:16.825Z,50.37
2023-05-08T09:57:57.240Z,51.98
2023-05-08T10:00:25.158Z,51.61
2023-05-08T10:03:10.008Z,50.69
2023-05-08T10:05:37.208Z,51.27
2023-05-08T10:08:23.270Z,51.43
2023-05-08T10:10:50.043Z,49.77
2023-05-08T10:13:16.706Z,51.05
2023-05-08T10:15:43.947Z,51.33
2023-05-08T10:18:12.103Z,51.10
2023-05-08T10:20:40.229Z,52.37
2023-05-08T10:23:11.572Z,51.80
2023-05-08T10:25:49.144Z,52.27
2023-05-08T10:28:23.232Z,51.07
2023-05-08T10:30:50.206Z,50.55
2023-05-08T10:33:21.534Z,50.91
2023-05-08T10:35:48.434Z,49.80
2023-05-08T10:38:15.393Z,50.81
2023-05-08T10:40:42.019Z,48.88
2023-05-08T10:43:09.261Z,51.01
2023-05-08T10:45:35.960Z,51.53
2023-05-08T10:48:36.717Z,50.54
2023-05-08T10:51:06.321Z,49.45
2023-05-08T10:53:57.401Z,49.33
2023-05-08T10:56:30.421Z,48.56
2023-05-08T10:58:57.860Z,47.07
2023-05-08T11:01:25.015Z,48.99
2023-05-08T11:03:52.369Z,49.33
2023-05-08T11:06:42.113Z,48.85
2023-05-08T11:09:09.084Z,46.85
2023-05-08T11:11:38.684Z,47.35
2023-05-08T11:14:08.432Z,48.74
2023-05-08T11:16:53.781Z,47.56
2023-05-08T11:19:24.451Z,47.64
2023-05-08T11:22:24.916Z,48.48
2023-05-08T11:25:10.275Z,48.27
2023-05-08T11:27:49.002Z,48.85
2023-05-08T11:30:22.365Z,47.85
2023-05-08T11:33:19.022Z,48.27
2023-05-08T11:35:46.698Z,48.23
2023-05-08T11:38:23.756Z,48.92
2023-05-08T11:41:00.798Z,49.28
2023-05-08T11:43:33.432Z,45.40
2023-05-08T11:46:01.111Z,47.93
2023-05-08T11:48:27.797Z,46.31
2023-05-08T11:50:54.447Z,45.95
2023-05-08T11:53:21.368Z,46.58
2023-05-08T11:55:57.310Z,46.09
2023-05-08T11:58:23.958Z,47.09
2023-05-08T12:00:50.765Z,47.21
2023-05-08T12:03:22.557Z,47.88
2023-05-08T12:05:50.324Z,46.07
2023-05-08T12:08:17.800Z,47.35
2023-05-08T12:10:47.095Z,46.28
2023-05-08T12:13:32.087Z,45.88
2023-05-08T12:15:59.918Z,47.72
2023-05-08T12:18:28.368Z,45.31
2023-05-08T12:20:57.209Z,45.46
2023-05-08T12:23:25.328Z,46.01
2023-05-08T12:25:55.499Z,46.71
2023-05-08T12:28:22.871Z,45.50
2023-05-08T12:30:52.322Z,45.38
2023-05-08T12:33:18.976Z,45.96
2023-05-08T12:35:45.699Z,45.38
2023-05-08T12:38:12.501Z,45.66
2023-05-08T12:40:43.469Z,45.07
2023-05-08T12:43:10.440Z,46.02
2023-05-08T12:45:39.569Z,46.18
2023-05-08T12:48:07.088Z,45.04
2023-05-08T12:50:38.324Z,45.70
2023-05-08T12:53:05.785Z,44.91
2023-05-08T12:55:33.665Z,44.05
2023-05-08T12:58:06.396Z,44.42
2023-05-08T13:00:50.077Z,43.79
2023-05-08T13:03:24.874Z,44.00
2023-05-08T13:05:52.147Z,44.77
2023-05-08T13:08:18.839Z,44.18
2023-05-08T13:10:53.795Z,44.62
2023-05-08T13:13:24.189Z,44.48
2023-05-08T13:15:51.495Z,45.26
2023-05-08T13:18:18.504Z,43.08
2023-05-08T13:20:45.354Z,45.64
2023-05-08T13:23:12.337Z,43.84
2023-05-08T13:25:39.759Z,43.48
2023-05-08T13:28:07.373Z,44.34
2023-05-08T13:30:34.630Z,43.31
2023-05-08T13:33:01.579Z,44.54
2023-05-08T13:35:31.066Z,43.86
2023-05-08T13:37:58.030Z,43.41
2023-05-08T13:40:26.000Z,43.80
2023-05-08T13:42:52.651Z,44.98
2023-05-08T13:45:19.296Z,43.26
2023-05-08T13:47:48.193Z,43.93
2023-05-08T13:50:15.967Z,43.62
2023-05-08T13:52:42.862Z,43.82
2023-05-08T13:55:12.365Z,44.29
2023-05-08T13:57:39.498Z,44.11
2023-05-08T14:00:06.747Z,44.17
2023-05-08T14:02:33.423Z,46.64
2023-05-08T14:05:00.120Z,43.65
2023-05-08T14:07:28.103Z,42.53
2023-05-08T14:09:54.752Z,43.13
2023-05-08T14:12:21.370Z,42.53
2023-05-08T14:14:48.028Z,42.47
2023-05-08T14:17:14.654Z,43.98
2023-05-08T14:19:41.278Z,45.06
2023-05-08T14:22:07.897Z,44.32
2023-05-08T14:24:34.620Z,43.37
2023-05-08T14:27:05.724Z,42.78
2023-05-08T14:29:35.475Z,43.91
2023-05-08T14:32:02.416Z,43.98
2023-05-08T14:34:29.070Z,45.02
2023-05-08T14:36:55.738Z,45.26
2023-05-08T14:39:22.364Z,45.77
2023-05-08T14:42:10.245Z,44.54
2023-05-08T14:44:35.731Z,44.44
2023-05-08T14:47:02.375Z,44.61
2023-05-08T14:49:37.454Z,44.12
2023-05-08T14:52:06.171Z,43.79
2023-05-08T14:54:33.010Z,44.70
2023-05-08T14:56:59.978Z,43.68
2023-05-08T14:59:26.783Z,44.77
2023-05-08T15:01:53.421Z,44.92
2023-05-08T15:04:20.382Z,43.96
2023-05-08T15:06:47.177Z,44.41
2023-05-08T15:09:14.040Z,44.24
2023-05-08T15:11:40.803Z,44.11
2023-05-08T15:14:07.620Z,44.30
2023-05-08T15:16:34.314Z,44.94
2023-05-08T15:19:01.408Z,46.19
2023-05-08T15:21:28.546Z,44.64
2023-05-08T15:23:55.700Z,43.85
2023-05-08T15:26:22.860Z,43.16
2023-05-08T15:28:49.650Z,43.14
2023-05-08T15:31:16.446Z,44.89
2023-05-08T15:33:45.093Z,44.86
2023-05-08T15:36:13.007Z,43.57
2023-05-08T15:38:41.062Z,43.65
2023-05-08T15:41:07.871Z,43.02
2023-05-08T15:43:34.523Z,42.67
2023-05-08T15:46:01.350Z,43.50
2023-05-08T15:48:28.213Z,43.85
2023-05-08T15:50:54.874Z,43.07
2023-05-08T15:53:21.801Z,42.34
2023-05-08T15:55:49.185Z,43.23
2023-05-08T15:58:16.145Z,43.35
2023-05-08T16:00:45.255Z,43.64
2023-05-08T16:03:12.481Z,43.98
2023-05-08T16:05:39.617Z,45.10
2023-05-08T16:08:07.566Z,43.81
2023-05-08T16:10:34.506Z,43.89
2023-05-08T16:13:01.215Z,45.19
2023-05-08T16:15:27.951Z,45.00
2023-05-08T16:17:56.057Z,44.32
2023-05-08T16:20:22.790Z,44.13
2023-05-08T16:22:54.092Z,43.84
2023-05-08T16:25:20.769Z,44.45
2023-05-08T16:27:47.476Z,44.14
2023-05-08T16:30:14.156Z,44.34
2023-05-08T16:32:42.041Z,44.83
2023-05-08T16:35:09.129Z,44.68
2023-05-08T16:37:37.461Z,45.71
2023-05-08T16:40:05.138Z,44.35
2023-05-08T16:42:31.782Z,45.13
2023-05-08T16:44:58.388Z,45.23
2023-05-08T16:47:25.026Z,44.82
2023-05-08T16:49:51.792Z,44.95
2023-05-08T16:52:18.461Z,44.53
2023-05-08T16:54:45.049Z,44.11
2023-05-08T16:57:11.788Z,44.84
2023-05-08T16:59:38.530Z,45.17
2023-05-08T17:02:05.612Z,45.17
2023-05-08T17:04:32.282Z,45.25
2023-05-08T17:07:00.026Z,44.26
2023-05-08T17:09:27.915Z,43.50
2023-05-08T17:11:54.560Z,45.04
2023-05-08T17:14:21.229Z,45.45
2023-05-08T17:16:47.984Z,45.56
2023-05-08T17:19:14.659Z,45.52
2023-05-08T17:21:41.264Z,45.87
2023-05-08T17:24:08.219Z,46.19
2023-05-08T17:26:35.137Z,45.81
2023-05-08T17:29:01.883Z,45.79
2023-05-08T17:31:28.651Z,46.36
2023-05-08T17:33:55.324Z,46.34
2023-05-08T17:36:21.960Z,47.08
2023-05-08T17:38:50.473Z,47.11
2023-05-08T17:41:17.501Z,47.11
2023-05-08T17:43:44.164Z,47.41
2023-05-08T17:46:10.888Z,47.34
2023-05-08T17:48:37.538Z,47.10
2023-05-08T17:51:04.375Z,47.52
2023-05-08T17:53:31.038Z,47.35
2023-05-08T17:55:58.205Z,47.73
2023-05-08T17:58:24.883Z,48.31
2023-05-08T18:00:51.807Z,48.54
2023-05-08T18:03:18.537Z,48.40
2023-05-08T18:05:45.477Z,49.08
2023-05-08T18:08:12.143Z,48.91
2023-05-08T18:10:39.522Z,48.86
2023-05-08T18:13:06.295Z,48.43
2023-05-08T18:15:36.098Z,49.44
2023-05-08T18:18:02.976Z,49.50
2023-05-08T18:20:29.619Z,50.00
2023-05-08T18:22:56.249Z,49.38
2023-05-08T18:25:22.947Z,48.17
2023-05-08T18:27:50.346Z,49.07
2023-05-08T18:30:17.231Z,49.35
2023-05-08T18:32:43.962Z,50.06
2023-05-08T18:35:10.628Z,50.02
2023-05-08T18:37:37.294Z,51.31
2023-05-08T18:40:05.104Z,50.93
2023-05-08T18:42:31.712Z,50.93
2023-05-08T18:45:00.457Z,51.72
2023-05-08T18:47:27.348Z,51.48
2023-05-08T18:49:54.198Z,52.68
2023-05-08T18:52:20.883Z,53.10
2023-05-08T18:54:47.547Z,52.68
2023-05-08T18:57:14.314Z,52.19
2023-05-08T18:59:41.320Z,51.96
2023-05-08T19:02:08.076Z,52.82
2023-05-08T19:04:34.904Z,52.12
2023-05-08T19:07:03.158Z,52.56
2023-05-08T19:09:29.930Z,52.46
2023-05-08T19:11:56.788Z,52.13
2023-05-08T19:14:23.476Z,51.50
2023-05-08T19:16:50.248Z,51.59
2023-05-08T19:19:18.978Z,51.92
2023-05-08T19:21:45.591Z,52.10
2023-05-08T19:24:12.459Z,52.53
2023-05-08T19:26:39.125Z,53.25
2023-05-08T19:29:05.900Z,53.78
2023-05-08T19:31:32.858Z,53.52
2023-05-08T19:34:00.008Z,53.31
2023-05-08T19:36:26.681Z,53.53
2023-05-08T19:38:53.353Z,54.00
2023-05-08T19:41:20.225Z,53.65
2023-05-08T19:43:46.897Z,53.84
2023-05-08T19:46:13.592Z,53.96
2023-05-08T19:48:40.262Z,53.78
2023-05-08T19:51:07.814Z,54.56
2023-05-08T19:53:34.522Z,53.95
2023-05-08T19:56:01.327Z,53.86
2023-05-08T19:58:27.995Z,53.09
2023-05-08T20:00:54.716Z,52.69
2023-05-08T20:03:21.374Z,53.29
2023-05-08T20:05:48.107Z,53.41
2023-05-08T20:08:14.845Z,53.30
2023-05-08T20:10:41.498Z,53.58
2023-05-08T20:13:08.125Z,53.71
2023-05-08T20:15:34.997Z,53.48
2023-05-08T20:18:01.739Z,53.62
2023-05-08T20:20:29.821Z,53.79
2023-05-08T20:22:56.512Z,53.57
2023-05-08T20:25:23.156Z,54.05
2023-05-08T20:27:49.801Z,53.82
2023-05-08T20:30:16.719Z,54.19
2023-05-08T20:32:43.530Z,53.70
2023-05-08T20:35:10.182Z,54.43
2023-05-08T20:37:43.181Z,54.11
2023-05-08T20:40:10.319Z,53.78
2023-05-08T20:42:36.921Z,54.14
2023-05-08T20:45:04.085Z,54.43
2023-05-08T20:47:30.747Z,54.20
2023-05-08T20:49:57.303Z,54.25
2023-05-08T20:52:23.912Z,54.55
2023-05-08T20:54:50.920Z,54.21
2023-05-08T20:57:18.418Z,53.99
2023-05-08T21:00:03.677Z,54.49
2023-05-08T21:02:30.312Z,54.12
2023-05-08T21:04:57.030Z,54.36
2023-05-08T21:07:23.711Z,54.60
2023-05-08T21:09:50.358Z,54.62
2023-05-08T21:12:16.976Z,55.10
2023-05-08T21:14:44.128Z,55.12
2023-05-08T21:17:10.816Z,55.42
2023-05-08T21:19:37.668Z,54.49
2023-05-08T21:22:05.040Z,55.69
2023-05-08T21:24:49.893Z,55.86
2023-05-08T21:27:16.564Z,55.91
2023-05-08T21:29:43.189Z,55.64
2023-05-08T21:32:10.441Z,55.71
2023-05-08T21:34:37.164Z,55.68
2023-05-08T21:37:03.987Z,55.76
2023-05-08T21:39:30.580Z,55.32
2023-05-08T21:41:57.216Z,55.74
2023-05-08T21:44:23.852Z,55.60
2023-05-08T21:46:50.861Z,55.56
2023-05-08T21:49:17.616Z,56.42
2023-05-08T21:51:45.758Z,56.64
2023-05-08T21:54:12.420Z,56.18
2023-05-08T21:56:39.316Z,56.02
2023-05-08T21:59:07.365Z,56.34
2023-05-08T22:01:34.026Z,57.07
2023-05-08T22:04:00.908Z,56.52
2023-05-08T22:06:27.708Z,56.62
2023-05-08T22:08:54.486Z,56.46
2023-05-08T22:11:22.479Z,56.90
2023-05-08T22:13:49.111Z,56.60
2023-05-08T22:16:15.916Z,56.57
2023-05-08T22:18:42.623Z,56.68
2023-05-08T22:21:09.219Z,56.01
2023-05-08T22:23:35.828Z,56.29
2023-05-08T22:26:03.200Z,56.81
2023-05-08T22:28:29.917Z,57.10
2023-05-08T22:30:56.580Z,56.90
2023-05-08T22:33:23.952Z,57.58
2023-05-08T22:35:50.650Z,57.21
2023-05-08T22:38:17.326Z,56.95
2023-05-08T22:40:43.969Z,57.13
2023-05-08T22:43:10.576Z,57.57
2023-05-08T22:45:37.223Z,57.06
2023-05-08T22:48:04.125Z,57.70
2023-05-08T22:50:30.942Z,57.51
2023-05-08T22:52:57.631Z,57.43
2023-05-08T22:55:24.222Z,57.75
2023-05-08T22:57:50.878Z,58.41
2023-05-08T23:00:17.641Z,58.86
2023-05-08T23:02:44.363Z,58.75
2023-05-08T23:05:11.098Z,58.97
2023-05-08T23:07:37.717Z,59.26
2023-05-08T23:10:04.571Z,59.91
2023-05-08T23:12:31.292Z,60.33
2023-05-08T23:14:57.909Z,60.51
2023-05-08T23:17:24.607Z,60.74
2023-05-08T23:19:51.269Z,60.94
2023-05-08T23:22:17.887Z,60.94
2023-05-08T23:24:44.520Z,61.77
2023-05-08T23:27:11.762Z,61.87
2023-05-08T23:29:38.374Z,62.12
2023-05-08T23:32:05.224Z,62.15
2023-05-08T23:34:31.822Z,61.92
2023-05-08T23:36:58.414Z,61.98
2023-05-08T23:39:25.272Z,62.40
2023-05-08T23:41:51.901Z,62.28
2023-05-08T23:44:18.614Z,62.02
2023-05-08T23:46:46.248Z,62.16
2023-05-08T23:49:12.978Z,62.75
2023-05-08T23:51:39.583Z,62.62
2023-05-08T23:54:06.931Z,62.65
2023-05-08T23:56:33.594Z,62.65
2023-05-08T23:59:00.248Z,62.51
